createdAt,value
2022-09-10T00:01:40.649Z,16.90
2022-09-10T00:04:12.343Z,16.90
2022-09-10T00:06:41.626Z,16.90
2022-09-10T00:09:11.255Z,16.90
2022-09-10T00:11:41.754Z,16.90
2022-09-10T00:14:15.952Z,16.90
2022-09-10T00:16:44.449Z,16.90
2022-09-10T00:19:13.597Z,16.90
2022-09-10T00:21:42.167Z,16.90
2022-09-10T00:24:10.469Z,16.90
2022-09-10T00:26:40.057Z,16.90
2022-09-10T00:29:10.502Z,16.90
2022-09-10T00:31:40.954Z,16.90
2022-09-10T00:34:10.348Z,16.90
2022-09-10T00:36:40.857Z,16.90
2022-09-10T00:39:10.830Z,16.90
2022-09-10T00:41:40.924Z,16.90
2022-09-10T00:44:47.950Z,16.90
2022-09-10T00:47:22.868Z,16.80
2022-09-10T00:49:55.583Z,16.80
2022-09-10T00:52:24.537Z,16.90
2022-09-10T00:54:53.428Z,16.80
2022-09-10T00:57:24.204Z,16.80
2022-09-10T00:59:57.116Z,16.80
2022-09-10T01:02:27.121Z,16.80
2022-09-10T01:04:58.220Z,16.80
2022-09-10T01:07:29.182Z,16.80
2022-09-10T01:09:59.345Z,16.90
2022-09-10T01:12:57.869Z,16.80
2022-09-10T01:15:33.194Z,16.80
2022-09-10T01:18:16.058Z,16.80
2022-09-10T01:20:58.747Z,16.80
2022-09-10T01:24:03.520Z,16.80
2022-09-10T01:26:49.383Z,16.80
2022-09-10T01:29:24.910Z,16.80
2022-09-10T01:31:56.708Z,16.80
2022-09-10T01:34:30.603Z,16.80
2022-09-10T01:37:05.030Z,16.80
2022-09-10T01:39:34.190Z,16.80
2022-09-10T01:42:02.777Z,16.80
2022-09-10T01:44:48.277Z,16.80
2022-09-10T01:47:27.850Z,16.80
2022-09-10T01:50:09.034Z,16.80
2022-09-10T01:52:46.730Z,16.80
2022-09-10T01:55:27.333Z,16.70
2022-09-10T01:58:05.393Z,16.80
2022-09-10T02:00:37.403Z,16.70
2022-09-10T02:03:11.935Z,16.80
2022-09-10T02:05:42.932Z,16.80
2022-09-10T02:08:16.642Z,16.80
2022-09-10T02:10:52.797Z,16.80
2022-09-10T02:13:22.691Z,16.80
2022-09-10T02:15:53.104Z,16.80
2022-09-10T02:18:22.390Z,16.70
2022-09-10T02:20:53.434Z,16.70
2022-09-10T02:23:27.382Z,16.70
2022-09-10T02:25:56.052Z,16.70
2022-09-10T02:28:24.555Z,16.80
2022-09-10T02:30:55.102Z,16.80
2022-09-10T02:33:24.006Z,16.70
2022-09-10T02:35:53.799Z,16.70
2022-09-10T02:38:22.452Z,16.70
2022-09-10T02:40:50.984Z,16.70
2022-09-10T02:43:20.147Z,16.70
2022-09-10T02:45:48.562Z,16.70
2022-09-10T02:48:18.696Z,16.80
2022-09-10T02:50:47.278Z,16.80
2022-09-10T02:53:15.589Z,16.70
2022-09-10T02:55:46.258Z,16.70
2022-09-10T02:58:14.735Z,16.70
2022-09-10T03:00:43.127Z,16.70
2022-09-10T03:03:12.139Z,16.70
2022-09-10T03:05:42.358Z,16.70
2022-09-10T03:08:11.381Z,16.70
2022-09-10T03:10:39.903Z,16.70
2022-09-10T03:13:08.381Z,16.70
2022-09-10T03:15:37.052Z,16.70
2022-09-10T03:18:06.719Z,16.60
2022-09-10T03:20:35.082Z,16.60
2022-09-10T03:23:04.910Z,16.60
2022-09-10T03:25:33.898Z,16.60
2022-09-10T03:28:02.368Z,16.60
2022-09-10T03:30:30.792Z,16.60
2022-09-10T03:32:59.404Z,16.60
2022-09-10T03:35:27.782Z,16.60
2022-09-10T03:37:56.269Z,16.50
2022-09-10T03:40:26.322Z,16.50
2022-09-10T03:42:54.972Z,16.50
2022-09-10T03:45:23.297Z,16.50
2022-09-10T03:47:52.031Z,16.50
2022-09-10T03:50:21.125Z,16.40
2022-09-10T03:52:50.174Z,16.40
2022-09-10T03:55:19.059Z,16.40
2022-09-10T03:57:48.793Z,16.40
2022-09-10T04:00:17.757Z,16.40
2022-09-10T04:02:46.896Z,16.30
2022-09-10T04:05:16.088Z,16.40
2022-09-10T04:07:44.423Z,16.40
2022-09-10T04:10:13.408Z,16.40
2022-09-10T04:12:41.625Z,16.40
2022-09-10T04:15:13.349Z,16.40
2022-09-10T04:17:41.970Z,16.40
2022-09-10T04:20:12.002Z,16.40
2022-09-10T04:22:40.346Z,16.50
2022-09-10T04:25:09.608Z,16.50
2022-09-10T04:27:37.867Z,16.50
2022-09-10T04:30:07.397Z,16.50
2022-09-10T04:32:37.776Z,16.50
2022-09-10T04:35:07.118Z,16.50
2022-09-10T04:37:35.723Z,16.50
2022-09-10T04:40:04.948Z,16.50
2022-09-10T04:42:33.421Z,16.50
2022-09-10T04:45:01.838Z,16.50
2022-09-10T04:47:30.354Z,16.50
2022-09-10T04:50:00.166Z,16.60
2022-09-10T04:52:29.041Z,16.60
2022-09-10T04:54:57.661Z,16.60
2022-09-10T04:57:26.703Z,16.60
2022-09-10T04:59:55.667Z,16.60
2022-09-10T05:02:24.364Z,16.60
2022-09-10T05:04:52.698Z,16.60
2022-09-10T05:07:22.367Z,16.60
2022-09-10T05:09:50.775Z,16.60
2022-09-10T05:12:19.856Z,16.60
2022-09-10T05:14:49.090Z,16.60
2022-09-10T05:17:17.569Z,16.60
2022-09-10T05:19:45.973Z,16.60
2022-09-10T05:22:14.332Z,16.50
2022-09-10T05:24:44.279Z,16.50
2022-09-10T05:27:12.728Z,16.50
2022-09-10T05:29:41.134Z,16.50
2022-09-10T05:32:10.449Z,16.50
2022-09-10T05:34:39.482Z,16.50
2022-09-10T05:37:08.792Z,16.50
2022-09-10T05:39:37.285Z,16.50
2022-09-10T05:42:07.243Z,16.50
2022-09-10T05:44:35.722Z,16.50
2022-09-10T05:47:04.282Z,16.70
2022-09-10T05:49:32.616Z,16.60
2022-09-10T05:52:00.999Z,16.60
2022-09-10T05:54:29.613Z,16.60
2022-09-10T05:56:58.780Z,16.60
2022-09-10T05:59:29.896Z,16.60
2022-09-10T06:01:58.685Z,16.70
2022-09-10T06:04:27.428Z,16.70
2022-09-10T06:06:56.276Z,16.70
2022-09-10T06:09:25.160Z,16.80
2022-09-10T06:11:53.472Z,16.70
2022-09-10T06:14:22.012Z,16.80
2022-09-10T06:16:54.713Z,16.70
2022-09-10T06:19:23.191Z,16.80
2022-09-10T06:21:52.465Z,16.80
2022-09-10T06:24:20.857Z,16.80
2022-09-10T06:26:50.439Z,16.80
2022-09-10T06:29:19.846Z,16.80
2022-09-10T06:31:48.524Z,16.90
2022-09-10T06:34:19.145Z,16.90
2022-09-10T06:36:49.396Z,16.90
2022-09-10T06:39:17.933Z,17.00
2022-09-10T06:41:49.618Z,17.00
2022-09-10T06:44:18.528Z,17.10
2022-09-10T06:49:37.325Z,17.20
2022-09-10T06:52:05.717Z,17.20
2022-09-10T06:54:34.075Z,17.20
2022-09-10T06:57:04.585Z,17.30
2022-09-10T06:59:32.883Z,17.30
2022-09-10T07:02:02.322Z,17.30
2022-09-10T07:04:31.010Z,17.30
2022-09-10T07:07:00.964Z,17.40
2022-09-10T07:09:29.413Z,17.40
2022-09-10T07:11:59.255Z,17.40
2022-09-10T07:14:29.456Z,17.50
2022-09-10T07:16:59.514Z,17.50
2022-09-10T07:19:29.732Z,17.50
2022-09-10T07:21:58.089Z,17.50
2022-09-10T07:24:28.641Z,17.50
2022-09-10T07:26:57.920Z,17.50
2022-09-10T07:29:26.596Z,17.50
2022-09-10T07:31:55.218Z,17.50
2022-09-10T07:34:24.275Z,17.40
2022-09-10T07:36:52.568Z,17.40
2022-09-10T07:39:25.398Z,17.40
2022-09-10T07:41:55.609Z,17.40
2022-09-10T07:44:23.919Z,17.40
2022-09-10T07:46:53.494Z,17.40
2022-09-10T07:49:22.108Z,17.40
2022-09-10T07:51:59.085Z,17.40
2022-09-10T07:54:29.456Z,17.50
2022-09-10T07:56:59.297Z,17.40
2022-09-10T07:59:27.608Z,17.50
2022-09-10T08:01:56.206Z,17.50
2022-09-10T08:04:24.738Z,17.50
2022-09-10T08:06:53.118Z,17.60
2022-09-10T08:09:21.586Z,17.60
2022-09-10T08:11:50.025Z,17.70
2022-09-10T08:14:19.752Z,17.70
2022-09-10T08:16:48.259Z,17.80
2022-09-10T08:19:18.170Z,17.80
2022-09-10T08:21:47.688Z,17.90
2022-09-10T08:24:16.326Z,17.90
2022-09-10T08:26:44.816Z,17.90
2022-09-10T08:29:13.840Z,17.90
2022-09-10T08:31:44.263Z,17.90
2022-09-10T08:34:13.865Z,17.90
2022-09-10T08:36:42.309Z,18.00
2022-09-10T08:39:10.936Z,18.10
2022-09-10T08:41:48.117Z,18.30
2022-09-10T08:44:33.108Z,18.30
2022-09-10T08:47:08.528Z,18.40
2022-09-10T08:49:41.916Z,18.50
2022-09-10T08:52:20.624Z,18.50
2022-09-10T08:55:01.119Z,18.50
2022-09-10T08:57:34.101Z,18.50
2022-09-10T09:00:04.367Z,18.50
2022-09-10T09:02:49.173Z,18.50
2022-09-10T09:05:20.396Z,18.50
2022-09-10T09:07:49.904Z,18.60
2022-09-10T09:10:24.056Z,18.60
2022-09-10T09:13:05.598Z,18.70
2022-09-10T09:15:44.547Z,18.80
2022-09-10T09:18:24.458Z,18.80
2022-09-10T09:20:57.707Z,18.90
2022-09-10T09:23:34.025Z,18.90
2022-09-10T09:26:06.786Z,18.90
2022-09-10T09:28:39.689Z,19.00
2022-09-10T09:31:14.744Z,19.00
2022-09-10T09:33:46.483Z,19.00
2022-09-10T09:36:20.521Z,19.00
2022-09-10T09:38:50.957Z,19.00
2022-09-10T09:41:26.172Z,19.00
2022-09-10T09:43:58.858Z,19.00
2022-09-10T09:46:27.557Z,19.00
2022-09-10T09:49:00.179Z,19.00
2022-09-10T09:51:35.546Z,18.90
2022-09-10T09:54:46.461Z,18.90
2022-09-10T09:57:01.606Z,19.00
2022-09-10T09:59:31.882Z,19.00
2022-09-10T10:02:06.713Z,19.00
2022-09-10T10:04:41.505Z,19.10
2022-09-10T10:07:11.918Z,19.20
2022-09-10T10:09:44.653Z,19.10
2022-09-10T10:12:21.048Z,19.00
2022-09-10T10:14:49.943Z,18.90
2022-09-10T10:17:39.660Z,18.70
2022-09-10T10:20:12.354Z,18.70
2022-09-10T10:22:42.527Z,18.60
2022-09-10T10:25:36.306Z,18.50
2022-09-10T10:28:12.295Z,18.40
2022-09-10T10:30:41.725Z,18.30
2022-09-10T10:33:19.205Z,18.30
2022-09-10T10:35:51.660Z,18.20
2022-09-10T10:38:31.708Z,18.10
2022-09-10T10:41:37.932Z,18.10
2022-09-10T10:44:36.008Z,18.00
2022-09-10T10:47:34.509Z,17.90
2022-09-10T10:50:12.516Z,17.90
2022-09-10T10:52:51.275Z,17.80
2022-09-10T10:55:24.110Z,17.90
2022-09-10T10:58:11.269Z,17.80
2022-09-10T11:00:44.432Z,17.90
2022-09-10T11:03:19.420Z,17.90
2022-09-10T11:05:53.034Z,17.90
2022-09-10T11:08:28.234Z,17.80
2022-09-10T11:11:01.961Z,17.90
2022-09-10T11:13:36.025Z,17.80
2022-09-10T11:16:10.181Z,17.80
2022-09-10T11:18:44.200Z,17.80
2022-09-10T11:21:21.468Z,17.70
2022-09-10T11:23:58.169Z,17.70
2022-09-10T11:26:31.686Z,17.70
2022-09-10T11:29:13.235Z,17.70
2022-09-10T11:31:45.833Z,17.70
2022-09-10T11:34:22.762Z,17.70
2022-09-10T11:36:55.981Z,17.70
2022-09-10T11:39:34.437Z,17.70
2022-09-10T11:42:13.547Z,17.70
2022-09-10T11:44:55.448Z,17.70
2022-09-10T11:47:29.102Z,17.70
2022-09-10T11:50:02.798Z,17.70
2022-09-10T11:52:33.737Z,17.70
2022-09-10T11:55:04.904Z,17.80
2022-09-10T11:57:39.908Z,17.80
2022-09-10T12:00:15.834Z,17.80
2022-09-10T12:03:41.163Z,17.80
2022-09-10T12:06:15.646Z,17.80
2022-09-10T12:09:01.199Z,17.90
2022-09-10T12:11:39.108Z,17.90
2022-09-10T12:14:08.786Z,17.90
2022-09-10T12:16:43.619Z,17.90
2022-09-10T12:19:24.632Z,18.00
2022-09-10T12:21:59.032Z,17.90
2022-09-10T12:24:32.067Z,18.00
2022-09-10T12:27:03.234Z,18.00
2022-09-10T12:29:34.907Z,18.00
2022-09-10T12:32:36.596Z,18.10
2022-09-10T12:35:47.436Z,18.10
2022-09-10T12:38:50.077Z,18.00
2022-09-10T12:41:58.666Z,18.00
2022-09-10T12:44:56.265Z,18.00
2022-09-10T12:47:52.626Z,18.00
2022-09-10T12:50:31.792Z,18.00
2022-09-10T12:53:37.472Z,18.00
2022-09-10T12:56:43.415Z,18.10
2022-09-10T12:59:31.982Z,18.20
2022-09-10T13:02:02.226Z,18.30
2022-09-10T13:04:34.727Z,18.40
2022-09-10T13:07:06.708Z,18.40
2022-09-10T13:09:37.671Z,18.50
2022-09-10T13:12:21.605Z,18.50
2022-09-10T13:14:52.843Z,18.60
2022-09-10T13:17:42.230Z,18.60
2022-09-10T13:20:30.129Z,18.70
2022-09-10T13:23:01.478Z,18.70
2022-09-10T13:25:39.875Z,18.80
2022-09-10T13:28:47.937Z,18.80
2022-09-10T13:31:25.908Z,18.90
2022-09-10T13:34:20.415Z,18.90
2022-09-10T13:37:17.998Z,18.90
2022-09-10T13:40:13.032Z,18.90
2022-09-10T13:43:07.580Z,18.90
2022-09-10T13:45:40.686Z,18.90
2022-09-10T13:48:15.032Z,18.90
2022-09-10T13:50:52.941Z,18.80
2022-09-10T13:53:24.833Z,18.90
2022-09-10T13:56:00.966Z,18.90
2022-09-10T13:58:34.087Z,18.90
2022-09-10T14:01:04.005Z,18.80
2022-09-10T14:03:34.070Z,18.80
2022-09-10T14:06:07.621Z,18.80
2022-09-10T14:08:39.784Z,18.80
2022-09-10T14:11:17.353Z,18.80
2022-09-10T14:13:51.849Z,18.80
2022-09-10T14:16:29.960Z,18.70
2022-09-10T14:19:02.767Z,18.70
2022-09-10T14:21:33.579Z,18.60
2022-09-10T14:24:02.412Z,18.60
2022-09-10T14:26:33.794Z,18.60
2022-09-10T14:29:04.294Z,18.60
2022-09-10T14:31:36.875Z,18.60
2022-09-10T14:34:32.265Z,18.60
2022-09-10T14:37:03.223Z,18.60
2022-09-10T14:39:31.751Z,18.50
2022-09-10T14:42:24.042Z,18.60
2022-09-10T14:44:52.727Z,18.60
2022-09-10T14:47:32.436Z,18.60
2022-09-10T14:50:31.107Z,18.60
2022-09-10T14:53:01.106Z,18.60
2022-09-10T14:55:33.085Z,18.60
2022-09-10T14:58:01.343Z,18.50
2022-09-10T15:00:30.585Z,18.50
2022-09-10T15:02:59.151Z,18.50
2022-09-10T15:05:29.750Z,18.50
2022-09-10T15:07:58.135Z,18.50
2022-09-10T15:10:28.138Z,18.50
2022-09-10T15:12:56.660Z,18.40
2022-09-10T15:15:26.934Z,18.30
2022-09-10T15:17:55.489Z,18.30
2022-09-10T15:20:27.811Z,18.30
2022-09-10T15:22:57.023Z,18.20
2022-09-10T15:25:38.013Z,18.10
2022-09-10T15:28:07.983Z,18.10
2022-09-10T15:30:36.958Z,18.00
2022-09-10T15:33:05.898Z,18.00
2022-09-10T15:35:35.167Z,18.00
2022-09-10T15:38:03.861Z,18.00
2022-09-10T15:40:33.718Z,17.90
2022-09-10T15:43:02.289Z,17.90
2022-09-10T15:45:31.978Z,17.90
2022-09-10T15:48:00.363Z,17.90
2022-09-10T15:50:29.748Z,17.80
2022-09-10T15:52:58.175Z,17.80
2022-09-10T15:55:27.664Z,17.80
2022-09-10T15:57:58.134Z,17.80
2022-09-10T16:00:26.769Z,17.70
2022-09-10T16:02:55.086Z,17.70
2022-09-10T16:05:23.844Z,17.70
2022-09-10T16:07:52.191Z,17.70
2022-09-10T16:10:20.664Z,17.70
2022-09-10T16:12:49.209Z,17.60
2022-09-10T16:15:19.185Z,17.60
2022-09-10T16:17:47.571Z,17.60
2022-09-10T16:20:16.329Z,17.60
2022-09-10T16:22:44.965Z,17.60
2022-09-10T16:25:13.276Z,17.60
2022-09-10T16:27:43.414Z,17.60
2022-09-10T16:30:13.791Z,17.70
2022-09-10T16:32:43.600Z,17.70
2022-09-10T16:35:12.268Z,17.70
2022-09-10T16:37:40.776Z,17.60
2022-09-10T16:40:11.210Z,17.60
2022-09-10T16:42:39.847Z,17.50
2022-09-10T16:45:09.472Z,17.50
2022-09-10T16:47:38.232Z,17.40
2022-09-10T16:50:09.285Z,17.40
2022-09-10T16:52:37.653Z,17.30
2022-09-10T16:55:07.083Z,17.30
2022-09-10T16:57:35.702Z,17.20
2022-09-10T17:00:06.176Z,17.20
2022-09-10T17:02:35.221Z,17.20
2022-09-10T17:05:04.642Z,17.10
2022-09-10T17:07:34.487Z,17.10
2022-09-10T17:10:02.861Z,17.10
2022-09-10T17:12:31.445Z,17.10
2022-09-10T17:14:59.782Z,17.00
2022-09-10T17:17:28.359Z,17.00
2022-09-10T17:19:57.251Z,17.00
2022-09-10T17:22:27.010Z,17.00
2022-09-10T17:24:56.951Z,17.00
2022-09-10T17:27:27.729Z,16.90
2022-09-10T17:29:55.999Z,16.90
2022-09-10T17:32:24.408Z,16.90
2022-09-10T17:34:52.801Z,16.90
2022-09-10T17:37:21.196Z,16.80
2022-09-10T17:39:51.590Z,16.90
2022-09-10T17:42:21.521Z,16.80
2022-09-10T17:44:49.798Z,16.80
2022-09-10T17:47:18.270Z,16.80
2022-09-10T17:49:47.088Z,16.80
2022-09-10T17:52:15.751Z,16.80
2022-09-10T17:54:44.340Z,16.70
2022-09-10T17:57:13.438Z,16.70
2022-09-10T17:59:43.326Z,16.70
2022-09-10T18:02:15.418Z,16.70
2022-09-10T18:04:44.163Z,16.70
2022-09-10T18:07:13.030Z,16.70
2022-09-10T18:09:41.404Z,16.70
2022-09-10T18:12:09.897Z,16.70
2022-09-10T18:14:38.544Z,16.70
2022-09-10T18:17:08.244Z,16.70
2022-09-10T18:19:36.739Z,16.70
2022-09-10T18:22:05.770Z,16.70
2022-09-10T18:24:34.734Z,16.70
2022-09-10T18:27:05.300Z,16.70
2022-09-10T18:29:33.696Z,16.70
2022-09-10T18:32:02.476Z,16.70
2022-09-10T18:34:32.857Z,16.70
2022-09-10T18:37:02.759Z,16.70
2022-09-10T18:39:32.784Z,16.70
2022-09-10T18:42:02.321Z,16.70
2022-09-10T18:44:33.328Z,16.60
2022-09-10T18:47:02.192Z,16.60
2022-09-10T18:49:33.598Z,16.60
2022-09-10T18:52:02.283Z,16.70
2022-09-10T18:54:31.127Z,16.70
2022-09-10T18:56:59.752Z,16.80
2022-09-10T18:59:28.044Z,16.90
2022-09-10T19:01:56.832Z,17.00
2022-09-10T19:04:27.226Z,17.10
2022-09-10T19:06:58.367Z,17.30
2022-09-10T19:09:28.790Z,17.40
2022-09-10T19:11:59.207Z,17.60
2022-09-10T19:14:29.930Z,17.60
2022-09-10T19:17:00.142Z,17.70
2022-09-10T19:19:30.539Z,17.80
2022-09-10T19:22:02.761Z,17.90
2022-09-10T19:27:20.068Z,18.00
2022-09-10T19:29:49.769Z,18.10
2022-09-10T19:32:19.863Z,18.20
2022-09-10T19:34:50.719Z,18.20
2022-09-10T19:37:21.001Z,18.20
2022-09-10T19:39:50.149Z,18.20
2022-09-10T19:42:18.730Z,18.20
2022-09-10T19:44:48.151Z,18.20
2022-09-10T19:47:16.472Z,18.30
2022-09-10T19:49:44.865Z,18.30
2022-09-10T19:52:14.759Z,18.30
2022-09-10T19:54:44.950Z,18.30
2022-09-10T19:57:14.089Z,18.30
2022-09-10T19:59:42.469Z,18.30
2022-09-10T20:02:10.962Z,18.30
2022-09-10T20:04:39.602Z,18.30
2022-09-10T20:07:07.932Z,18.20
2022-09-10T20:09:39.790Z,18.20
2022-09-10T20:12:10.799Z,18.20
2022-09-10T20:14:39.218Z,18.10
2022-09-10T20:17:07.633Z,18.10
2022-09-10T20:19:36.149Z,18.10
2022-09-10T20:22:04.530Z,18.10
2022-09-10T20:24:33.099Z,18.10
2022-09-10T20:27:02.314Z,18.00
2022-09-10T20:29:32.893Z,18.00
2022-09-10T20:32:01.387Z,18.00
2022-09-10T20:34:31.297Z,18.00
2022-09-10T20:36:59.892Z,17.90
2022-09-10T20:39:28.309Z,17.90
2022-09-10T20:41:57.826Z,17.90
2022-09-10T20:44:26.298Z,17.80
2022-09-10T20:46:56.363Z,17.90
2022-09-10T20:49:24.854Z,17.80
2022-09-10T20:51:53.582Z,17.80
2022-09-10T20:54:21.939Z,17.80
2022-09-10T20:56:50.550Z,17.80
2022-09-10T20:59:23.239Z,17.80
2022-09-10T21:01:56.589Z,17.80
2022-09-10T21:04:26.027Z,17.80
2022-09-10T21:06:55.166Z,17.80
2022-09-10T21:09:23.571Z,17.80
2022-09-10T21:11:51.889Z,17.80
2022-09-10T21:14:20.527Z,17.80
2022-09-10T21:16:49.142Z,17.80
2022-09-10T21:19:18.844Z,17.80
2022-09-10T21:21:48.821Z,17.80
2022-09-10T21:24:22.496Z,17.80
2022-09-10T21:26:53.290Z,17.70
2022-09-10T21:29:23.075Z,17.70
2022-09-10T21:31:54.535Z,17.70
2022-09-10T21:34:24.530Z,17.70
2022-09-10T21:36:53.132Z,17.70
2022-09-10T21:39:21.833Z,17.70
2022-09-10T21:41:51.266Z,17.70
2022-09-10T21:44:22.334Z,17.70
2022-09-10T21:46:51.517Z,17.70
2022-09-10T21:49:21.339Z,17.70
2022-09-10T21:51:52.276Z,17.70
2022-09-10T21:54:22.541Z,17.70
2022-09-10T21:56:52.772Z,17.70
2022-09-10T21:59:22.252Z,17.70
2022-09-10T22:01:51.261Z,17.70
2022-09-10T22:04:23.120Z,17.70
2022-09-10T22:06:53.979Z,17.70
2022-09-10T22:09:22.895Z,17.70
2022-09-10T22:11:54.260Z,17.60
2022-09-10T22:14:24.485Z,17.60
2022-09-10T22:16:53.653Z,17.60
2022-09-10T22:19:23.691Z,17.60
2022-09-10T22:21:56.731Z,17.60
2022-09-10T22:24:26.193Z,17.60
2022-09-10T22:26:56.371Z,17.60
2022-09-10T22:29:25.208Z,17.60
2022-09-10T22:31:53.697Z,17.60
2022-09-10T22:34:22.580Z,17.50
2022-09-10T22:36:51.057Z,17.50
2022-09-10T22:39:21.840Z,17.50
2022-09-10T22:41:52.252Z,17.50
2022-09-10T22:44:21.004Z,17.40
2022-09-10T22:46:49.622Z,17.40
2022-09-10T22:49:19.840Z,17.40
2022-09-10T22:51:48.977Z,17.40
2022-09-10T22:54:17.550Z,17.30
2022-09-10T22:56:47.361Z,17.30
2022-09-10T22:59:16.636Z,17.30
2022-09-10T23:01:47.444Z,17.30
2022-09-10T23:04:16.594Z,17.30
2022-09-10T23:06:45.251Z,17.20
2022-09-10T23:09:15.302Z,17.20
2022-09-10T23:11:45.249Z,17.20
2022-09-10T23:14:17.883Z,17.20
2022-09-10T23:16:48.435Z,17.10
2022-09-10T23:19:19.584Z,17.10
2022-09-10T23:21:49.917Z,17.10
2022-09-10T23:24:20.593Z,17.00
2022-09-10T23:26:49.511Z,17.00
2022-09-10T23:29:23.024Z,16.90
2022-09-10T23:31:53.506Z,16.90
2022-09-10T23:34:22.604Z,16.90
2022-09-10T23:36:52.355Z,16.90
2022-09-10T23:39:22.930Z,16.90
2022-09-10T23:41:53.544Z,16.90
2022-09-10T23:44:24.324Z,16.90
2022-09-10T23:46:53.483Z,16.90
2022-09-10T23:49:21.725Z,16.90
2022-09-10T23:51:50.646Z,16.90
2022-09-10T23:54:19.329Z,16.90
2022-09-10T23:56:47.574Z,16.90
2022-09-10T23:59:16.368Z,16.90
